createdAt,value
2023-03-02T00:01:50.297Z,23.42
2023-03-02T00:04:29.045Z,21.63
2023-03-02T00:07:01.256Z,24.15
2023-03-02T00:09:33.162Z,22.73
2023-03-02T00:12:03.043Z,24.02
2023-03-02T00:14:34.458Z,23.15
2023-03-02T00:17:07.976Z,22.40
2023-03-02T00:19:41.281Z,21.25
2023-03-02T00:22:14.800Z,22.10
2023-03-02T00:24:48.713Z,22.00
2023-03-02T00:27:19.703Z,21.85
2023-03-02T00:29:51.161Z,22.27
2023-03-02T00:32:21.647Z,22.20
2023-03-02T00:34:48.356Z,21.50
2023-03-02T00:37:18.190Z,20.42
2023-03-02T00:39:45.269Z,21.33
2023-03-02T00:44:43.900Z,20.80
2023-03-02T00:47:15.987Z,19.90
2023-03-02T00:49:49.975Z,19.58
2023-03-02T00:52:17.178Z,18.85
2023-03-02T00:54:51.660Z,18.35
2023-03-02T00:57:21.428Z,18.23
2023-03-02T00:59:48.327Z,18.48
2023-03-02T01:02:25.622Z,20.17
2023-03-02T01:04:54.844Z,18.20
2023-03-02T01:07:26.436Z,17.80
2023-03-02T01:09:59.918Z,18.15
2023-03-02T01:12:31.890Z,18.75
2023-03-02T01:15:00.213Z,18.58
2023-03-02T01:17:31.638Z,18.30
2023-03-02T01:20:00.672Z,18.27
2023-03-02T01:22:29.983Z,18.80
2023-03-02T01:27:23.530Z,18.98
2023-03-02T01:29:51.440Z,17.73
2023-03-02T01:32:18.194Z,18.55
2023-03-02T01:34:44.953Z,18.63
2023-03-02T01:37:11.725Z,18.40
2023-03-02T01:39:38.521Z,18.88
2023-03-02T01:42:05.688Z,18.65
2023-03-02T01:44:57.072Z,18.23
2023-03-02T01:47:27.602Z,20.00
2023-03-02T01:50:06.835Z,18.52
2023-03-02T01:52:38.563Z,19.13
2023-03-02T01:55:15.492Z,19.77
2023-03-02T01:57:47.524Z,18.88
2023-03-02T02:00:19.472Z,19.70
2023-03-02T02:02:48.247Z,17.65
2023-03-02T02:05:28.452Z,19.38
2023-03-02T02:07:57.938Z,18.85
2023-03-02T02:10:24.694Z,17.33
2023-03-02T02:12:56.206Z,18.10
2023-03-02T02:15:25.845Z,17.55
2023-03-02T02:17:54.434Z,16.27
2023-03-02T02:20:31.694Z,17.20
2023-03-02T02:23:12.859Z,17.02
2023-03-02T02:25:55.643Z,16.73
2023-03-02T02:29:00.173Z,17.10
2023-03-02T02:31:54.007Z,16.45
2023-03-02T02:34:50.157Z,16.55
2023-03-02T02:37:44.871Z,17.23
2023-03-02T02:40:37.354Z,14.75
2023-03-02T02:43:09.362Z,15.10
2023-03-02T02:45:40.897Z,16.70
2023-03-02T02:48:31.323Z,15.38
2023-03-02T02:51:03.280Z,15.82
2023-03-02T02:53:33.228Z,16.00
2023-03-02T02:56:00.385Z,15.70
2023-03-02T02:58:33.644Z,15.35
2023-03-02T03:01:02.971Z,16.33
2023-03-02T03:03:35.638Z,15.00
2023-03-02T03:06:13.379Z,14.93
2023-03-02T03:08:46.327Z,14.13
2023-03-02T03:11:26.587Z,14.68
2023-03-02T03:14:02.176Z,14.88
2023-03-02T03:16:31.645Z,13.85
2023-03-02T03:19:12.978Z,15.35
2023-03-02T03:21:40.311Z,14.45
2023-03-02T03:24:10.110Z,14.60
2023-03-02T03:26:37.194Z,14.43
2023-03-02T03:29:05.057Z,13.93
2023-03-02T03:31:31.827Z,14.52
2023-03-02T03:34:00.634Z,15.88
2023-03-02T03:36:36.798Z,14.55
2023-03-02T03:39:05.789Z,14.27
2023-03-02T03:44:01.047Z,13.05
2023-03-02T03:46:30.095Z,12.43
2023-03-02T03:49:00.631Z,13.43
2023-03-02T03:51:27.986Z,13.63
2023-03-02T03:54:00.586Z,14.40
2023-03-02T03:56:34.891Z,12.77
2023-03-02T03:59:08.858Z,13.73
2023-03-02T04:01:55.209Z,13.70
2023-03-02T04:04:30.168Z,13.75
2023-03-02T04:06:59.863Z,13.90
2023-03-02T04:09:27.247Z,15.05
2023-03-02T04:11:57.655Z,13.07
2023-03-02T04:14:25.779Z,13.18
2023-03-02T04:16:54.280Z,13.93
2023-03-02T04:19:23.470Z,14.35
2023-03-02T04:21:54.984Z,14.95
2023-03-02T04:24:27.445Z,13.95
2023-03-02T04:26:58.807Z,15.43
2023-03-02T04:29:32.285Z,14.80
2023-03-02T04:32:02.955Z,14.07
2023-03-02T04:34:32.822Z,14.07
2023-03-02T04:37:03.318Z,13.70
2023-03-02T04:39:30.524Z,14.77
2023-03-02T04:41:59.756Z,14.40
2023-03-02T04:44:26.768Z,13.63
2023-03-02T04:46:55.801Z,13.10
2023-03-02T04:49:22.753Z,14.10
2023-03-02T04:51:50.061Z,14.20
2023-03-02T04:54:25.738Z,14.55
2023-03-02T04:56:52.845Z,14.82
2023-03-02T04:59:25.984Z,13.75
2023-03-02T05:01:58.462Z,14.43
2023-03-02T05:04:26.236Z,14.38
2023-03-02T05:06:57.853Z,13.77
2023-03-02T05:09:31.302Z,13.85
2023-03-02T05:12:04.512Z,14.25
2023-03-02T05:14:33.808Z,13.40
2023-03-02T05:17:00.608Z,16.05
2023-03-02T05:19:27.739Z,14.93
2023-03-02T05:21:54.514Z,15.52
2023-03-02T05:24:23.846Z,13.18
2023-03-02T05:26:50.764Z,12.88
2023-03-02T05:29:17.527Z,14.02
2023-03-02T05:31:49.817Z,11.27
2023-03-02T05:34:19.360Z,11.27
2023-03-02T05:36:46.786Z,11.82
2023-03-02T05:39:13.765Z,12.07
2023-03-02T05:41:41.043Z,11.98
2023-03-02T05:44:09.732Z,11.70
2023-03-02T05:46:39.228Z,12.90
2023-03-02T05:49:08.490Z,12.20
2023-03-02T05:51:35.374Z,13.25
2023-03-02T05:54:02.361Z,12.27
2023-03-02T05:56:32.002Z,11.48
2023-03-02T05:59:01.321Z,12.70
2023-03-02T06:01:28.125Z,11.85
2023-03-02T06:03:59.828Z,12.65
2023-03-02T06:06:26.681Z,11.65
2023-03-02T06:08:53.815Z,11.63
2023-03-02T06:13:54.046Z,11.02
2023-03-02T06:16:23.148Z,12.27
2023-03-02T06:18:50.106Z,11.60
2023-03-02T06:21:16.868Z,12.13
2023-03-02T06:23:45.840Z,13.07
2023-03-02T06:26:13.478Z,12.32
2023-03-02T06:28:52.553Z,12.18
2023-03-02T06:31:25.797Z,12.00
2023-03-02T06:33:53.058Z,12.13
2023-03-02T06:36:19.978Z,12.40
2023-03-02T06:38:46.826Z,12.98
2023-03-02T06:41:15.150Z,11.38
2023-03-02T06:43:41.993Z,12.35
2023-03-02T06:46:11.491Z,12.70
2023-03-02T06:48:43.446Z,12.02
2023-03-02T06:51:14.936Z,12.98
2023-03-02T06:53:44.378Z,13.93
2023-03-02T06:56:13.450Z,12.90
2023-03-02T06:58:42.724Z,13.82
2023-03-02T07:01:12.051Z,13.75
2023-03-02T07:03:41.265Z,12.82
2023-03-02T07:06:12.974Z,13.18
2023-03-02T07:11:13.036Z,12.20
2023-03-02T07:13:43.014Z,10.60
2023-03-02T07:16:11.634Z,11.18
2023-03-02T07:18:40.771Z,12.32
2023-03-02T07:21:08.126Z,10.05
2023-03-02T07:23:37.394Z,11.40
2023-03-02T07:26:08.656Z,11.00
2023-03-02T07:28:41.941Z,11.27
2023-03-02T07:31:12.218Z,10.18
2023-03-02T07:33:39.788Z,10.55
2023-03-02T07:36:11.382Z,10.50
2023-03-02T07:41:09.671Z,11.02
2023-03-02T07:43:37.221Z,11.60
2023-03-02T07:46:07.396Z,10.65
2023-03-02T07:48:34.681Z,11.32
2023-03-02T07:51:02.242Z,10.65
2023-03-02T07:53:29.619Z,10.80
2023-03-02T07:55:56.677Z,9.27
2023-03-02T07:58:24.328Z,10.80
2023-03-02T08:00:51.138Z,10.35
2023-03-02T08:03:18.001Z,8.60
2023-03-02T08:05:44.777Z,8.20
2023-03-02T08:08:11.526Z,8.68
2023-03-02T08:10:38.822Z,8.10
2023-03-02T08:13:05.688Z,7.53
2023-03-02T08:15:34.910Z,7.90
2023-03-02T08:18:03.945Z,6.70
2023-03-02T08:20:30.811Z,7.28
2023-03-02T08:22:57.618Z,7.07
2023-03-02T08:25:26.868Z,6.75
2023-03-02T08:27:55.976Z,6.10
2023-03-02T08:30:22.799Z,5.90
2023-03-02T08:32:52.101Z,6.88
2023-03-02T08:35:22.351Z,6.57
2023-03-02T08:37:54.223Z,5.35
2023-03-02T08:40:25.617Z,6.00
2023-03-02T08:42:58.129Z,6.18
2023-03-02T08:47:54.883Z,6.60
2023-03-02T08:50:21.932Z,5.57
2023-03-02T08:52:51.182Z,5.40
2023-03-02T08:55:18.673Z,6.13
2023-03-02T08:57:45.558Z,6.55
2023-03-02T09:00:16.439Z,6.65
2023-03-02T09:02:43.371Z,7.07
2023-03-02T09:05:10.473Z,7.93
2023-03-02T09:07:37.269Z,7.07
2023-03-02T09:10:04.605Z,7.55
2023-03-02T09:12:33.909Z,7.55
2023-03-02T09:17:27.336Z,7.18
2023-03-02T09:19:54.078Z,7.65
2023-03-02T09:22:20.881Z,7.53
2023-03-02T09:24:52.773Z,7.97
2023-03-02T09:27:19.655Z,7.35
2023-03-02T09:29:48.856Z,8.10
2023-03-02T09:32:16.059Z,7.60
2023-03-02T09:34:42.913Z,7.55
2023-03-02T09:37:09.725Z,6.90
2023-03-02T09:39:40.885Z,7.35
2023-03-02T09:42:42.005Z,8.00
2023-03-02T09:45:16.864Z,7.38
2023-03-02T09:48:14.398Z,7.50
2023-03-02T09:51:04.816Z,7.13
2023-03-02T09:53:37.734Z,6.65
2023-03-02T09:56:14.423Z,7.63
2023-03-02T09:58:42.495Z,7.40
2023-03-02T10:01:16.752Z,6.25
2023-03-02T10:04:00.626Z,6.60
2023-03-02T10:06:27.786Z,6.85
2023-03-02T10:08:54.954Z,6.30
2023-03-02T10:11:39.878Z,5.85
2023-03-02T10:14:21.320Z,5.78
2023-03-02T10:17:22.475Z,5.93
2023-03-02T10:19:57.091Z,6.25
2023-03-02T10:22:33.858Z,6.35
2023-03-02T10:25:15.054Z,5.80
2023-03-02T10:27:52.720Z,6.00
2023-03-02T10:30:33.048Z,5.60
2023-03-02T10:33:03.778Z,5.60
2023-03-02T10:35:31.895Z,5.70
2023-03-02T10:38:14.280Z,5.97
2023-03-02T10:43:58.508Z,6.25
2023-03-02T10:46:26.211Z,6.10
2023-03-02T10:48:58.313Z,5.18
2023-03-02T10:51:35.664Z,5.05
2023-03-02T10:54:13.384Z,4.57
2023-03-02T10:56:48.203Z,5.57
2023-03-02T10:59:27.116Z,5.80
2023-03-02T11:02:15.486Z,4.90
2023-03-02T11:04:42.433Z,4.13
2023-03-02T11:07:17.685Z,4.25
2023-03-02T11:10:20.352Z,4.55
2023-03-02T11:12:49.345Z,5.20
2023-03-02T11:15:32.368Z,4.53
2023-03-02T11:18:17.139Z,4.22
2023-03-02T11:20:46.831Z,5.03
2023-03-02T11:23:33.302Z,4.28
2023-03-02T11:26:05.485Z,4.20
2023-03-02T11:28:35.281Z,4.20
2023-03-02T11:31:07.076Z,4.70
2023-03-02T11:33:44.373Z,4.10
2023-03-02T11:36:29.314Z,4.53
2023-03-02T11:38:56.220Z,4.68
2023-03-02T11:41:36.926Z,4.55
2023-03-02T11:44:16.674Z,4.78
2023-03-02T11:46:48.704Z,4.80
2023-03-02T11:49:24.759Z,5.03
2023-03-02T11:51:59.121Z,5.10
2023-03-02T11:54:57.917Z,5.05
2023-03-02T11:58:28.245Z,5.35
2023-03-02T12:00:59.720Z,5.53
2023-03-02T12:03:32.211Z,5.32
2023-03-02T12:06:05.990Z,5.30
2023-03-02T12:08:37.963Z,4.88
2023-03-02T12:11:06.741Z,5.45
2023-03-02T12:13:39.203Z,5.63
2023-03-02T12:16:22.652Z,4.95
2023-03-02T12:18:51.533Z,5.20
2023-03-02T12:21:25.807Z,4.72
2023-03-02T12:23:52.900Z,4.80
2023-03-02T12:26:38.705Z,4.47
2023-03-02T12:29:11.551Z,4.57
2023-03-02T12:31:53.381Z,4.82
2023-03-02T12:34:26.831Z,3.95
2023-03-02T12:36:59.934Z,4.57
2023-03-02T12:39:51.279Z,4.10
2023-03-02T12:42:30.183Z,4.70
2023-03-02T12:45:14.067Z,4.05
2023-03-02T12:47:45.333Z,3.80
2023-03-02T12:50:22.277Z,3.40
2023-03-02T12:53:00.034Z,3.22
2023-03-02T12:55:27.605Z,3.60
2023-03-02T12:57:57.458Z,3.55
2023-03-02T13:00:34.681Z,3.80
2023-03-02T13:03:07.139Z,3.30
2023-03-02T13:05:35.633Z,4.00
2023-03-02T13:08:28.922Z,3.35
2023-03-02T13:11:02.376Z,3.67
2023-03-02T13:13:36.511Z,3.53
2023-03-02T13:16:06.088Z,3.70
2023-03-02T13:18:35.131Z,3.35
2023-03-02T13:21:05.862Z,2.90
2023-03-02T13:23:35.938Z,3.03
2023-03-02T13:26:04.948Z,4.00
2023-03-02T13:31:14.636Z,4.00
2023-03-02T13:33:47.469Z,3.58
2023-03-02T13:36:24.736Z,3.60
2023-03-02T13:38:56.483Z,3.50
2023-03-02T13:41:36.962Z,3.65
2023-03-02T13:44:21.593Z,3.90
2023-03-02T13:46:48.799Z,3.95
2023-03-02T13:49:32.634Z,3.92
2023-03-02T13:52:43.257Z,3.78
2023-03-02T13:55:17.064Z,4.00
2023-03-02T13:57:45.993Z,3.70
2023-03-02T14:02:48.761Z,4.15
2023-03-02T14:05:41.560Z,4.03
2023-03-02T14:08:08.280Z,3.60
2023-03-02T14:10:39.049Z,4.18
2023-03-02T14:13:09.247Z,4.60
2023-03-02T14:15:50.293Z,4.05
2023-03-02T14:18:33.273Z,3.78
2023-03-02T14:21:00.206Z,3.50
2023-03-02T14:23:30.007Z,4.43
2023-03-02T14:25:57.219Z,3.42
2023-03-02T14:28:35.980Z,4.05
2023-03-02T14:33:31.770Z,3.53
2023-03-02T14:36:02.324Z,3.47
2023-03-02T14:38:29.830Z,3.53
2023-03-02T14:41:00.452Z,2.90
2023-03-02T14:43:30.756Z,3.30
2023-03-02T14:46:00.056Z,2.97
2023-03-02T14:48:29.203Z,2.95
2023-03-02T14:50:56.662Z,3.22
2023-03-02T14:53:28.629Z,2.58
2023-03-02T14:55:55.397Z,3.13
2023-03-02T14:58:30.831Z,2.70
2023-03-02T15:00:58.133Z,2.97
2023-03-02T15:03:28.061Z,2.15
2023-03-02T15:06:01.596Z,2.47
2023-03-02T15:08:31.858Z,2.75
2023-03-02T15:11:00.952Z,2.35
2023-03-02T15:13:28.435Z,2.58
2023-03-02T15:15:55.370Z,2.17
2023-03-02T15:18:22.018Z,2.30
2023-03-02T15:20:51.261Z,2.38
2023-03-02T15:23:18.130Z,2.72
2023-03-02T15:25:49.595Z,2.63
2023-03-02T15:28:19.997Z,2.75
2023-03-02T15:30:49.240Z,3.53
2023-03-02T15:33:16.024Z,2.50
2023-03-02T15:35:53.701Z,2.45
2023-03-02T15:38:21.772Z,2.80
2023-03-02T15:40:50.708Z,3.05
2023-03-02T15:45:46.952Z,3.40
2023-03-02T15:48:14.249Z,4.25
2023-03-02T15:50:50.819Z,3.83
2023-03-02T15:53:20.125Z,3.13
2023-03-02T15:55:47.014Z,3.25
2023-03-02T15:58:13.874Z,3.45
2023-03-02T16:00:42.989Z,2.97
2023-03-02T16:03:10.041Z,3.00
2023-03-02T16:05:39.256Z,3.08
2023-03-02T16:08:06.181Z,3.00
2023-03-02T16:10:36.343Z,3.30
2023-03-02T16:13:06.383Z,2.75
2023-03-02T16:15:42.753Z,3.75
2023-03-02T16:18:11.718Z,3.13
2023-03-02T16:20:39.141Z,3.72
2023-03-02T16:23:09.678Z,3.10
2023-03-02T16:25:39.897Z,3.65
2023-03-02T16:28:07.573Z,3.20
2023-03-02T16:30:37.995Z,3.22
2023-03-02T16:33:07.744Z,3.42
2023-03-02T16:35:35.705Z,3.45
2023-03-02T16:38:05.649Z,4.10
2023-03-02T16:40:37.425Z,4.30
2023-03-02T16:43:08.816Z,5.68
2023-03-02T16:45:36.157Z,4.35
2023-03-02T16:48:06.460Z,5.25
2023-03-02T16:50:33.428Z,5.72
2023-03-02T16:53:02.889Z,5.85
2023-03-02T16:55:34.988Z,5.18
2023-03-02T16:58:04.053Z,5.68
2023-03-02T17:00:31.466Z,5.40
2023-03-02T17:03:01.015Z,5.25
2023-03-02T17:05:30.113Z,5.40
2023-03-02T17:07:58.950Z,4.85
2023-03-02T17:10:25.859Z,6.15
2023-03-02T17:12:54.990Z,6.38
2023-03-02T17:15:24.430Z,6.65
2023-03-02T17:17:53.912Z,6.07
2023-03-02T17:20:21.159Z,6.72
2023-03-02T17:22:48.098Z,7.28
2023-03-02T17:25:16.761Z,8.45
2023-03-02T17:27:46.084Z,8.13
2023-03-02T17:32:40.580Z,8.80
2023-03-02T17:35:09.097Z,9.57
2023-03-02T17:37:35.990Z,10.88
2023-03-02T17:40:03.503Z,11.20
2023-03-02T17:42:33.196Z,12.23
2023-03-02T17:45:00.073Z,12.50
2023-03-02T17:47:26.980Z,12.48
2023-03-02T17:49:54.650Z,12.23
2023-03-02T17:52:21.960Z,12.30
2023-03-02T17:54:48.847Z,12.93
2023-03-02T17:57:22.483Z,12.43
2023-03-02T17:59:52.629Z,12.88
2023-03-02T18:02:24.897Z,12.30
2023-03-02T18:04:51.752Z,12.52
2023-03-02T18:07:18.628Z,12.73
2023-03-02T18:09:49.525Z,13.32
2023-03-02T18:12:16.301Z,12.50
2023-03-02T18:14:45.717Z,11.93
2023-03-02T18:22:10.273Z,12.82
2023-03-02T18:24:39.533Z,13.23
2023-03-02T18:27:06.318Z,13.27
2023-03-02T18:29:33.183Z,13.13
2023-03-02T18:32:02.702Z,14.20
2023-03-02T18:34:32.245Z,14.55
2023-03-02T18:36:59.036Z,14.10
2023-03-02T18:39:28.362Z,14.05
2023-03-02T18:41:55.437Z,14.65
2023-03-02T18:44:28.081Z,15.18
2023-03-02T18:46:55.810Z,16.10
2023-03-02T18:49:26.007Z,14.50
2023-03-02T18:51:58.798Z,15.52
2023-03-02T18:54:28.079Z,14.40
2023-03-02T18:56:54.949Z,14.45
2023-03-02T18:59:22.153Z,15.93
2023-03-02T19:01:49.017Z,14.77
2023-03-02T19:04:16.026Z,14.23
2023-03-02T19:09:14.396Z,14.23
2023-03-02T19:11:41.201Z,17.20
2023-03-02T19:14:10.501Z,15.23
2023-03-02T19:16:40.106Z,14.10
2023-03-02T19:19:08.112Z,15.30
2023-03-02T19:21:34.913Z,14.77
2023-03-02T19:24:02.046Z,14.07
2023-03-02T19:26:28.891Z,14.43
2023-03-02T19:28:58.367Z,14.30
2023-03-02T19:36:21.202Z,12.63
2023-03-02T19:38:48.004Z,13.52
2023-03-02T19:41:19.007Z,12.77
2023-03-02T19:43:51.819Z,13.57
2023-03-02T19:46:22.033Z,13.02
2023-03-02T19:48:51.414Z,12.60
2023-03-02T19:51:18.167Z,12.30
2023-03-02T19:53:47.300Z,12.43
2023-03-02T19:56:15.178Z,13.45
2023-03-02T19:58:54.197Z,14.52
2023-03-02T20:01:25.122Z,12.48
2023-03-02T20:03:53.059Z,12.70
2023-03-02T20:06:21.695Z,12.13
2023-03-02T20:08:49.587Z,13.77
2023-03-02T20:11:17.256Z,13.00
2023-03-02T20:13:44.210Z,13.55
2023-03-02T20:16:13.449Z,13.10
2023-03-02T20:18:42.848Z,13.82
2023-03-02T20:21:14.406Z,13.10
2023-03-02T20:23:43.704Z,13.45
2023-03-02T20:26:16.242Z,13.75
2023-03-02T20:28:43.358Z,13.70
2023-03-02T20:31:12.662Z,15.50
2023-03-02T20:33:50.704Z,13.57
2023-03-02T20:36:30.224Z,13.50
2023-03-02T20:39:20.259Z,13.30
2023-03-02T20:41:50.328Z,13.43
2023-03-02T20:46:56.114Z,13.23
2023-03-02T20:49:24.813Z,13.60
2023-03-02T20:51:55.505Z,13.68
2023-03-02T20:54:28.225Z,13.77
2023-03-02T20:56:55.189Z,13.35
2023-03-02T20:59:25.671Z,14.73
2023-03-02T21:01:53.331Z,13.82
2023-03-02T21:04:20.840Z,14.30
2023-03-02T21:06:47.891Z,14.15
2023-03-02T21:09:15.802Z,14.57
2023-03-02T21:11:45.990Z,13.82
2023-03-02T21:14:16.430Z,14.43
2023-03-02T21:16:44.962Z,14.90
2023-03-02T21:19:15.549Z,12.87
2023-03-02T21:21:44.792Z,13.40
2023-03-02T21:24:18.054Z,13.75
2023-03-02T21:26:46.017Z,15.18
2023-03-02T21:29:16.780Z,14.80
2023-03-02T21:31:43.942Z,14.02
2023-03-02T21:34:12.796Z,14.95
2023-03-02T21:36:39.811Z,15.30
2023-03-02T21:39:07.270Z,15.45
2023-03-02T21:41:37.474Z,14.73
2023-03-02T21:44:06.225Z,15.63
2023-03-02T21:46:36.496Z,15.68
2023-03-02T21:49:06.215Z,15.68
2023-03-02T21:51:33.321Z,15.82
2023-03-02T21:54:00.373Z,15.55
2023-03-02T21:58:57.299Z,15.43
2023-03-02T22:01:26.100Z,16.10
2023-03-02T22:03:53.620Z,15.40
2023-03-02T22:06:29.231Z,17.52
2023-03-02T22:08:57.098Z,16.75
2023-03-02T22:11:34.786Z,17.60
2023-03-02T22:14:18.423Z,17.42
2023-03-02T22:16:48.075Z,17.30
2023-03-02T22:19:27.184Z,16.98
2023-03-02T22:22:03.286Z,16.30
2023-03-02T22:24:32.288Z,17.63
2023-03-02T22:27:25.451Z,17.15
2023-03-02T22:29:57.828Z,18.17
2023-03-02T22:32:37.161Z,17.20
2023-03-02T22:37:39.951Z,17.33
2023-03-02T22:40:35.862Z,17.20
2023-03-02T22:43:31.777Z,16.65
2023-03-02T22:46:01.715Z,17.58
2023-03-02T22:48:32.609Z,18.50
2023-03-02T22:50:59.400Z,17.42
2023-03-02T22:53:30.252Z,17.27
2023-03-02T22:56:02.603Z,15.45
2023-03-02T22:58:48.515Z,16.85
2023-03-02T23:01:21.345Z,18.95
2023-03-02T23:04:13.106Z,16.58
2023-03-02T23:06:48.850Z,15.73
2023-03-02T23:09:21.664Z,18.73
2023-03-02T23:11:49.558Z,17.77
2023-03-02T23:14:22.840Z,18.00
2023-03-02T23:17:04.105Z,17.38
2023-03-02T23:19:31.489Z,18.42
2023-03-02T23:22:00.738Z,19.52
2023-03-02T23:24:27.613Z,19.45
2023-03-02T23:26:57.494Z,18.73
2023-03-02T23:29:24.271Z,19.30
2023-03-02T23:31:51.191Z,19.10
2023-03-02T23:34:21.636Z,18.95
2023-03-02T23:36:48.496Z,21.52
2023-03-02T23:39:18.052Z,20.13
2023-03-02T23:41:44.948Z,20.98
2023-03-02T23:44:14.285Z,19.85
2023-03-02T23:46:43.448Z,20.83
2023-03-02T23:49:10.367Z,21.45
2023-03-02T23:51:37.329Z,19.98
2023-03-02T23:54:04.904Z,20.55
2023-03-02T23:56:31.843Z,20.92
2023-03-02T23:58:58.724Z,21.15
